createdAt,value
2018-12-26T00:02:28.587Z,8.87
2018-12-26T00:04:57.806Z,6.23
2018-12-26T00:07:27.075Z,5.73
2018-12-26T00:09:56.375Z,8.93
2018-12-26T00:12:25.324Z,7.20
2018-12-26T00:14:54.591Z,6.93
2018-12-26T00:17:23.755Z,10.27
2018-12-26T00:19:52.898Z,7.00
2018-12-26T00:22:22.202Z,7.20
2018-12-26T00:24:51.559Z,7.63
2018-12-26T00:27:20.511Z,6.07
2018-12-26T00:29:49.455Z,6.57
2018-12-26T00:32:18.387Z,6.63
2018-12-26T00:34:47.354Z,6.37
2018-12-26T00:37:16.339Z,6.57
2018-12-26T00:39:47.968Z,6.40
2018-12-26T00:42:16.536Z,10.40
2018-12-26T00:44:45.492Z,6.47
2018-12-26T00:47:14.690Z,8.57
2018-12-26T00:49:43.651Z,5.20
2018-12-26T00:52:12.851Z,8.23
2018-12-26T00:54:41.816Z,6.93
2018-12-26T00:57:11.001Z,7.07
2018-12-26T00:59:39.947Z,12.27
2018-12-26T01:02:09.287Z,7.63
2018-12-26T01:04:38.219Z,8.60
2018-12-26T01:07:07.145Z,7.17
2018-12-26T01:09:36.174Z,9.37
2018-12-26T01:12:05.198Z,7.27
2018-12-26T01:14:35.380Z,6.27
2018-12-26T01:17:04.434Z,6.40
2018-12-26T01:19:33.338Z,8.33
2018-12-26T01:22:02.302Z,8.80
2018-12-26T01:24:31.220Z,8.40
2018-12-26T01:27:00.175Z,5.93
2018-12-26T01:29:29.162Z,8.50
2018-12-26T01:31:58.391Z,8.23
2018-12-26T01:34:27.710Z,7.07
2018-12-26T01:36:56.758Z,8.90
2018-12-26T01:39:25.707Z,8.37
2018-12-26T01:41:54.670Z,7.17
2018-12-26T01:44:23.602Z,8.80
2018-12-26T01:46:54.306Z,8.77
2018-12-26T01:49:23.638Z,7.73
2018-12-26T01:51:52.986Z,9.00
2018-12-26T01:54:21.848Z,10.20
2018-12-26T01:56:50.779Z,9.30
2018-12-26T01:59:19.955Z,7.63
2018-12-26T02:01:49.407Z,7.90
2018-12-26T02:04:18.407Z,6.07
2018-12-26T02:06:47.777Z,8.37
2018-12-26T02:09:16.809Z,9.20
2018-12-26T02:11:45.674Z,11.87
2018-12-26T02:14:14.627Z,10.00
2018-12-26T02:16:46.648Z,9.97
2018-12-26T02:19:15.592Z,10.70
2018-12-26T02:21:44.634Z,7.33
2018-12-26T02:24:13.570Z,11.63
2018-12-26T02:26:42.512Z,13.77
2018-12-26T02:29:18.023Z,10.07
2018-12-26T02:31:46.984Z,11.70
2018-12-26T02:34:16.391Z,10.47
2018-12-26T02:36:45.379Z,8.57
2018-12-26T02:39:14.705Z,10.27
2018-12-26T02:41:43.640Z,12.10
2018-12-26T02:44:12.992Z,13.03
2018-12-26T02:46:42.291Z,11.80
2018-12-26T02:49:11.264Z,11.63
2018-12-26T02:51:40.226Z,13.07
2018-12-26T02:54:09.225Z,15.00
2018-12-26T02:56:46.484Z,12.10
2018-12-26T02:59:09.247Z,10.53
2018-12-26T03:01:38.306Z,11.33
2018-12-26T03:04:07.544Z,14.23
2018-12-26T03:06:36.901Z,12.13
2018-12-26T03:09:07.832Z,12.00
2018-12-26T03:11:36.772Z,12.23
2018-12-26T03:14:06.060Z,13.00
2018-12-26T03:16:35.080Z,18.03
2018-12-26T03:19:04.283Z,14.73
2018-12-26T03:21:33.224Z,12.60
2018-12-26T03:24:02.261Z,11.07
2018-12-26T03:26:31.180Z,13.30
2018-12-26T03:29:00.109Z,13.10
2018-12-26T03:31:29.072Z,16.20
2018-12-26T03:33:58.314Z,16.30
2018-12-26T03:36:27.598Z,18.70
2018-12-26T03:38:57.028Z,16.90
2018-12-26T03:41:26.214Z,16.57
2018-12-26T03:43:55.248Z,15.10
2018-12-26T03:46:24.315Z,16.23
2018-12-26T03:48:53.436Z,16.33
2018-12-26T03:51:22.651Z,16.83
2018-12-26T03:53:52.020Z,15.73
2018-12-26T03:56:21.137Z,17.37
2018-12-26T03:58:50.635Z,17.37
2018-12-26T04:01:19.730Z,17.13
2018-12-26T04:03:48.817Z,15.80
2018-12-26T04:06:17.874Z,19.13
2018-12-26T04:08:46.931Z,16.77
2018-12-26T04:11:15.870Z,17.83
2018-12-26T04:13:45.018Z,17.70
2018-12-26T04:16:14.078Z,19.23
2018-12-26T04:18:43.097Z,20.20
2018-12-26T04:21:12.127Z,19.50
2018-12-26T04:23:41.146Z,21.00
2018-12-26T04:26:10.539Z,19.63
2018-12-26T04:28:39.505Z,20.13
2018-12-26T04:31:08.835Z,20.60
2018-12-26T04:33:37.777Z,22.63
2018-12-26T04:36:06.734Z,20.00
2018-12-26T04:38:35.657Z,18.70
2018-12-26T04:41:04.617Z,19.37
2018-12-26T04:43:33.560Z,20.27
2018-12-26T04:46:02.605Z,19.93
2018-12-26T04:48:31.544Z,25.17
2018-12-26T04:51:00.498Z,22.40
2018-12-26T04:53:29.431Z,18.90
2018-12-26T04:55:58.722Z,19.33
2018-12-26T04:58:28.245Z,19.70
2018-12-26T05:00:57.213Z,20.17
2018-12-26T05:03:26.284Z,19.73
2018-12-26T05:05:55.545Z,17.37
2018-12-26T05:08:24.569Z,19.10
2018-12-26T05:10:53.822Z,18.70
2018-12-26T05:13:22.828Z,23.90
2018-12-26T05:15:51.953Z,18.77
2018-12-26T05:18:21.144Z,17.87
2018-12-26T05:20:50.440Z,19.87
2018-12-26T05:23:19.799Z,17.10
2018-12-26T05:25:48.722Z,17.80
2018-12-26T05:28:17.689Z,21.37
2018-12-26T05:30:46.739Z,18.37
2018-12-26T05:33:15.638Z,17.90
2018-12-26T05:35:44.569Z,17.67
2018-12-26T05:38:13.528Z,20.10
2018-12-26T05:40:42.458Z,17.23
2018-12-26T05:43:13.511Z,18.70
2018-12-26T05:45:42.426Z,17.47
2018-12-26T05:48:11.739Z,19.37
2018-12-26T05:50:40.666Z,16.53
2018-12-26T05:53:09.547Z,17.43
2018-12-26T05:55:38.479Z,18.63
2018-12-26T05:58:07.531Z,22.70
2018-12-26T06:00:36.452Z,17.30
2018-12-26T06:03:05.503Z,16.77
2018-12-26T06:05:34.410Z,16.40
2018-12-26T06:08:03.350Z,16.17
2018-12-26T06:10:32.399Z,17.17
2018-12-26T06:13:01.848Z,17.03
2018-12-26T06:15:30.799Z,18.00
2018-12-26T06:17:59.824Z,16.20
2018-12-26T06:20:29.025Z,16.57
2018-12-26T06:22:58.044Z,16.93
2018-12-26T06:25:26.983Z,19.23
2018-12-26T06:27:55.936Z,17.87
2018-12-26T06:30:25.161Z,17.13
2018-12-26T06:32:54.159Z,18.40
2018-12-26T06:35:23.089Z,19.40
2018-12-26T06:37:52.091Z,19.77
2018-12-26T06:40:21.120Z,17.83
2018-12-26T06:42:50.030Z,16.50
2018-12-26T06:45:18.980Z,19.27
2018-12-26T06:47:48.311Z,20.77
2018-12-26T06:50:17.245Z,18.73
2018-12-26T06:52:46.211Z,22.10
2018-12-26T06:55:15.159Z,19.03
2018-12-26T06:57:44.378Z,20.87
2018-12-26T07:00:13.465Z,21.60
2018-12-26T07:02:42.318Z,21.20
2018-12-26T07:05:11.247Z,22.17
2018-12-26T07:07:40.184Z,20.70
2018-12-26T07:10:11.442Z,22.60
2018-12-26T07:12:40.452Z,22.70
2018-12-26T07:15:09.431Z,24.00
2018-12-26T07:17:38.371Z,21.70
2018-12-26T07:20:07.466Z,22.63
2018-12-26T07:22:36.369Z,25.20
2018-12-26T07:25:05.511Z,22.67
2018-12-26T07:27:34.777Z,24.07
2018-12-26T07:30:04.106Z,21.83
2018-12-26T07:32:33.343Z,23.77
2018-12-26T07:35:02.285Z,23.03
2018-12-26T07:37:31.420Z,24.03
2018-12-26T07:40:00.481Z,23.73
2018-12-26T07:42:29.514Z,22.50
2018-12-26T07:44:58.748Z,25.70
2018-12-26T07:47:27.701Z,27.53
2018-12-26T07:49:56.618Z,28.00
2018-12-26T07:52:25.567Z,24.10
2018-12-26T07:54:54.548Z,25.10
2018-12-26T07:57:23.491Z,30.00
2018-12-26T07:59:52.623Z,25.17
2018-12-26T08:02:21.936Z,30.20
2018-12-26T08:04:50.883Z,26.83
2018-12-26T08:07:20.046Z,23.23
2018-12-26T08:09:49.056Z,28.43
2018-12-26T08:12:18.034Z,25.90
2018-12-26T08:14:47.115Z,28.70
2018-12-26T08:17:16.051Z,29.17
2018-12-26T08:19:45.049Z,27.30
2018-12-26T08:22:14.070Z,25.47
2018-12-26T08:24:43.155Z,26.97
2018-12-26T08:27:12.401Z,33.50
2018-12-26T08:29:41.450Z,26.80
2018-12-26T08:32:10.791Z,26.70
2018-12-26T08:34:39.935Z,28.63
2018-12-26T08:37:08.998Z,28.97
2018-12-26T08:39:38.278Z,25.93
2018-12-26T08:42:07.227Z,29.97
2018-12-26T08:44:37.563Z,26.10
2018-12-26T08:47:06.872Z,29.17
2018-12-26T08:49:35.907Z,29.00
2018-12-26T08:52:05.007Z,27.53
2018-12-26T08:54:33.959Z,28.47
2018-12-26T08:57:02.897Z,26.67
2018-12-26T08:59:31.839Z,28.07
2018-12-26T09:02:00.790Z,28.40
2018-12-26T09:04:29.723Z,23.97
2018-12-26T09:06:59.068Z,28.10
2018-12-26T09:09:27.990Z,29.93
2018-12-26T09:11:57.032Z,29.77
2018-12-26T09:14:26.324Z,25.63
2018-12-26T09:16:55.419Z,27.47
2018-12-26T09:19:26.432Z,28.63
2018-12-26T09:21:55.459Z,28.97
2018-12-26T09:24:24.440Z,27.63
2018-12-26T09:26:53.410Z,28.37
2018-12-26T09:29:22.945Z,29.73
2018-12-26T09:31:51.863Z,27.47
2018-12-26T09:34:21.070Z,26.67
2018-12-26T09:36:50.015Z,25.17
2018-12-26T09:39:19.003Z,24.97
2018-12-26T09:41:47.926Z,24.40
2018-12-26T09:44:16.981Z,25.10
2018-12-26T09:46:45.929Z,25.07
2018-12-26T09:49:14.892Z,23.50
2018-12-26T09:51:43.876Z,25.97
2018-12-26T09:54:12.875Z,22.33
2018-12-26T09:56:41.838Z,24.17
2018-12-26T09:59:10.855Z,22.90
2018-12-26T10:01:39.771Z,24.77
2018-12-26T10:04:09.465Z,23.93
2018-12-26T10:06:40.604Z,22.00
2018-12-26T10:09:09.575Z,23.97
2018-12-26T10:11:38.565Z,21.10
2018-12-26T10:14:07.535Z,22.90
2018-12-26T10:16:36.518Z,20.43
2018-12-26T10:19:05.525Z,20.80
2018-12-26T10:21:34.511Z,19.30
2018-12-26T10:24:03.911Z,19.43
2018-12-26T10:26:32.915Z,18.27
2018-12-26T10:29:01.890Z,19.40
2018-12-26T10:31:31.058Z,18.57
2018-12-26T10:33:59.941Z,18.80
2018-12-26T10:36:29.131Z,18.83
2018-12-26T10:38:58.138Z,18.77
2018-12-26T10:41:27.110Z,17.60
2018-12-26T10:43:56.463Z,17.17
2018-12-26T10:46:25.515Z,17.33
2018-12-26T10:48:54.719Z,18.37
2018-12-26T10:51:23.653Z,18.53
2018-12-26T10:53:52.614Z,18.83
2018-12-26T10:56:21.472Z,18.77
2018-12-26T10:58:50.541Z,18.43
2018-12-26T11:01:19.433Z,20.73
2018-12-26T11:03:48.471Z,21.67
2018-12-26T11:06:17.453Z,18.83
2018-12-26T11:08:46.375Z,19.07
2018-12-26T11:11:15.408Z,22.07
2018-12-26T11:13:44.854Z,20.20
2018-12-26T11:16:14.071Z,18.37
2018-12-26T11:18:43.070Z,22.00
2018-12-26T11:21:12.029Z,20.00
2018-12-26T11:23:40.968Z,22.60
2018-12-26T11:26:09.910Z,22.90
2018-12-26T11:28:38.907Z,20.07
2018-12-26T11:31:07.878Z,19.97
2018-12-26T11:33:36.731Z,23.00
2018-12-26T11:36:05.673Z,21.70
2018-12-26T11:38:34.530Z,20.37
2018-12-26T11:41:05.195Z,22.93
2018-12-26T11:43:34.518Z,22.30
2018-12-26T11:46:03.554Z,21.20
2018-12-26T11:48:32.486Z,20.50
2018-12-26T11:51:01.439Z,22.87
2018-12-26T11:53:30.354Z,20.47
2018-12-26T11:55:59.291Z,19.43
2018-12-26T11:58:28.207Z,18.93
2018-12-26T12:00:57.161Z,18.43
2018-12-26T12:03:26.475Z,18.37
2018-12-26T12:05:55.546Z,18.03
2018-12-26T12:08:24.472Z,16.40
2018-12-26T12:10:53.865Z,16.87
2018-12-26T12:13:22.983Z,16.53
2018-12-26T12:15:51.939Z,15.10
2018-12-26T12:18:20.885Z,14.43
2018-12-26T12:20:49.754Z,13.47
2018-12-26T12:23:18.691Z,12.90
2018-12-26T12:25:47.715Z,17.03
2018-12-26T12:28:16.637Z,14.30
2018-12-26T12:30:45.606Z,13.17
2018-12-26T12:33:15.458Z,24.10
2018-12-26T12:35:44.359Z,24.10
2018-12-26T12:38:13.690Z,16.83
2018-12-26T12:40:42.818Z,23.80
2018-12-26T12:43:12.199Z,16.13
2018-12-26T12:45:41.194Z,17.17
2018-12-26T12:48:10.205Z,16.50
2018-12-26T12:50:39.286Z,15.63
2018-12-26T12:53:08.382Z,18.33
2018-12-26T12:55:37.373Z,16.97
2018-12-26T12:58:06.309Z,20.30
2018-12-26T13:00:35.227Z,15.70
2018-12-26T13:03:04.595Z,17.33
2018-12-26T13:05:33.936Z,19.80
2018-12-26T13:08:02.956Z,17.93
2018-12-26T13:10:32.257Z,19.33
2018-12-26T13:13:01.277Z,22.73
2018-12-26T13:15:30.215Z,21.90
2018-12-26T13:17:59.600Z,22.47
2018-12-26T13:20:28.523Z,27.43
2018-12-26T13:23:07.819Z,21.33
2018-12-26T13:25:36.773Z,23.77
2018-12-26T13:28:05.715Z,24.63
2018-12-26T13:30:34.674Z,24.00
2018-12-26T13:33:03.716Z,24.73
2018-12-26T13:35:32.649Z,42.10
2018-12-26T13:38:01.679Z,30.43
2018-12-26T13:40:30.972Z,39.23
2018-12-26T13:42:59.932Z,87.90
2018-12-26T13:45:28.882Z,33.97
2018-12-26T13:47:58.326Z,29.77
2018-12-26T13:50:27.263Z,66.13
2018-12-26T13:52:56.185Z,78.13
2018-12-26T13:55:25.541Z,40.93
2018-12-26T13:57:54.562Z,42.23
2018-12-26T14:00:23.697Z,35.63
2018-12-26T14:02:52.631Z,39.53
2018-12-26T14:05:21.567Z,39.10
2018-12-26T14:07:50.419Z,34.87
2018-12-26T14:10:19.366Z,50.60
2018-12-26T14:12:48.300Z,43.00
2018-12-26T14:15:17.242Z,36.63
2018-12-26T14:17:46.120Z,30.40
2018-12-26T14:20:15.350Z,31.60
2018-12-26T14:22:44.299Z,36.30
2018-12-26T14:25:13.314Z,32.63
2018-12-26T14:27:42.271Z,37.40
2018-12-26T14:30:11.679Z,42.27
2018-12-26T14:32:40.823Z,42.30
2018-12-26T14:35:09.785Z,33.60
2018-12-26T14:37:38.756Z,39.50
2018-12-26T14:40:07.783Z,37.63
2018-12-26T14:42:36.720Z,34.70
2018-12-26T14:45:05.807Z,40.73
2018-12-26T14:47:35.083Z,36.70
2018-12-26T14:50:04.743Z,33.47
2018-12-26T14:52:33.978Z,32.07
2018-12-26T14:55:03.273Z,30.97
2018-12-26T14:57:32.205Z,36.27
2018-12-26T15:00:01.798Z,34.80
2018-12-26T15:02:30.826Z,35.00
2018-12-26T15:04:59.763Z,32.93
2018-12-26T15:07:28.828Z,32.37
2018-12-26T15:09:58.020Z,33.07
2018-12-26T15:12:27.003Z,35.57
2018-12-26T15:14:55.968Z,31.50
2018-12-26T15:17:24.936Z,29.20
2018-12-26T15:19:54.174Z,32.33
2018-12-26T15:22:23.126Z,30.53
2018-12-26T15:24:52.499Z,33.17
2018-12-26T15:27:21.445Z,33.90
2018-12-26T15:29:50.630Z,29.47
2018-12-26T15:32:19.879Z,26.70
2018-12-26T15:34:48.817Z,24.17
2018-12-26T15:37:18.024Z,27.27
2018-12-26T15:39:46.940Z,25.60
2018-12-26T15:42:16.170Z,25.73
2018-12-26T15:44:45.398Z,26.77
2018-12-26T15:47:14.408Z,25.67
2018-12-26T15:49:43.335Z,28.40
2018-12-26T15:52:12.607Z,26.43
2018-12-26T15:54:41.997Z,23.47
2018-12-26T15:57:10.943Z,22.90
2018-12-26T15:59:40.417Z,22.00
2018-12-26T16:02:09.520Z,21.67
2018-12-26T16:04:38.706Z,22.53
2018-12-26T16:07:07.799Z,22.43
2018-12-26T16:09:37.003Z,23.07
2018-12-26T16:12:06.015Z,23.27
2018-12-26T16:14:34.962Z,23.50
2018-12-26T16:17:03.947Z,24.77
2018-12-26T16:19:32.950Z,21.37
2018-12-26T16:22:01.857Z,22.93
2018-12-26T16:24:30.808Z,23.33
2018-12-26T16:26:59.770Z,20.23
2018-12-26T16:29:28.769Z,21.07
2018-12-26T16:31:57.703Z,24.23
2018-12-26T16:34:26.764Z,26.67
2018-12-26T16:36:55.753Z,25.33
2018-12-26T16:39:24.704Z,23.50
2018-12-26T16:41:53.667Z,27.07
2018-12-26T16:44:22.756Z,37.47
2018-12-26T16:46:52.903Z,31.90
2018-12-26T16:49:21.864Z,38.17
2018-12-26T16:51:51.151Z,29.97
2018-12-26T16:54:20.024Z,27.63
2018-12-26T16:56:48.976Z,43.90
2018-12-26T16:59:18.005Z,33.57
2018-12-26T17:01:46.978Z,39.83
2018-12-26T17:04:15.927Z,34.90
2018-12-26T17:06:44.849Z,36.27
2018-12-26T17:09:15.013Z,28.50
2018-12-26T17:11:44.215Z,33.30
2018-12-26T17:14:13.149Z,33.53
2018-12-26T17:16:42.076Z,27.83
2018-12-26T17:19:11.012Z,31.00
2018-12-26T17:21:40.010Z,27.13
2018-12-26T17:24:16.289Z,31.47
2018-12-26T17:26:39.541Z,29.60
2018-12-26T17:29:08.833Z,27.50
2018-12-26T17:31:37.827Z,30.27
2018-12-26T17:34:06.770Z,29.87
2018-12-26T17:36:35.698Z,30.37
2018-12-26T17:39:07.621Z,27.17
2018-12-26T17:41:36.557Z,26.10
2018-12-26T17:44:05.563Z,28.83
2018-12-26T17:46:34.511Z,27.20
2018-12-26T17:49:03.442Z,27.27
2018-12-26T17:51:32.305Z,26.03
2018-12-26T17:54:57.923Z,26.70
2018-12-26T17:57:34.347Z,25.43
2018-12-26T18:00:25.697Z,27.00
2018-12-26T18:02:54.632Z,35.90
2018-12-26T18:05:23.897Z,36.40
2018-12-26T18:07:52.823Z,39.40
2018-12-26T18:10:22.100Z,32.83
2018-12-26T18:12:51.038Z,31.10
2018-12-26T18:15:20.238Z,36.10
2018-12-26T18:17:49.194Z,39.30
2018-12-26T18:20:18.458Z,41.10
2018-12-26T18:22:47.401Z,44.67
2018-12-26T18:25:16.715Z,49.13
2018-12-26T18:27:45.744Z,44.37
2018-12-26T18:30:14.742Z,41.23
2018-12-26T18:32:43.759Z,41.37
2018-12-26T18:35:13.093Z,44.47
2018-12-26T18:37:42.048Z,48.10
2018-12-26T18:40:10.965Z,41.30
2018-12-26T18:42:40.314Z,53.30
2018-12-26T18:45:10.011Z,47.47
2018-12-26T18:47:39.670Z,54.57
2018-12-26T18:50:10.773Z,59.77
2018-12-26T18:52:40.027Z,50.47
2018-12-26T18:55:09.475Z,50.80
2018-12-26T18:57:38.651Z,52.33
2018-12-26T19:00:10.982Z,71.37
2018-12-26T19:02:41.440Z,64.40
2018-12-26T19:05:11.635Z,49.23
2018-12-26T19:07:40.655Z,50.97
2018-12-26T19:10:10.641Z,54.57
2018-12-26T19:12:39.581Z,59.20
2018-12-26T19:15:09.427Z,54.97
2018-12-26T19:17:38.928Z,60.00
2018-12-26T19:20:09.703Z,48.53
2018-12-26T19:22:38.937Z,61.20
2018-12-26T19:25:07.993Z,61.43
2018-12-26T19:27:36.894Z,57.87
2018-12-26T19:30:08.955Z,59.57
2018-12-26T19:32:37.909Z,59.97
2018-12-26T19:35:11.827Z,58.40
2018-12-26T19:37:41.228Z,54.57
2018-12-26T19:40:10.239Z,53.73
2018-12-26T19:42:39.259Z,53.97
2018-12-26T19:45:09.846Z,58.67
2018-12-26T19:47:38.833Z,57.40
2018-12-26T19:50:09.155Z,54.27
2018-12-26T19:52:38.293Z,59.73
2018-12-26T19:55:08.347Z,59.73
2018-12-26T19:57:37.707Z,58.43
2018-12-26T20:00:11.528Z,56.50
2018-12-26T20:02:40.797Z,52.53
2018-12-26T20:05:09.929Z,54.17
2018-12-26T20:07:38.963Z,50.40
2018-12-26T20:10:09.599Z,51.83
2018-12-26T20:12:38.536Z,52.47
2018-12-26T20:15:07.564Z,57.37
2018-12-26T20:17:36.807Z,56.10
2018-12-26T20:20:06.071Z,66.17
2018-12-26T20:22:36.542Z,53.10
2018-12-26T20:25:05.886Z,50.83
2018-12-26T20:27:37.015Z,52.03
2018-12-26T20:30:07.460Z,45.60
2018-12-26T20:32:36.375Z,47.60
2018-12-26T20:35:05.654Z,49.87
2018-12-26T20:37:34.843Z,48.70
2018-12-26T20:40:03.984Z,47.90
2018-12-26T20:42:32.904Z,50.57
2018-12-26T20:45:02.132Z,49.60
2018-12-26T20:47:31.110Z,48.80
2018-12-26T20:50:00.413Z,43.17
2018-12-26T20:52:29.748Z,49.27
2018-12-26T20:54:59.021Z,47.53
2018-12-26T20:57:27.958Z,49.50
2018-12-26T20:59:56.996Z,47.57
2018-12-26T21:02:25.915Z,48.20
2018-12-26T21:04:54.863Z,47.80
2018-12-26T21:07:24.135Z,40.73
2018-12-26T21:09:53.173Z,44.60
2018-12-26T21:12:22.039Z,44.53
2018-12-26T21:14:51.037Z,44.10
2018-12-26T21:17:21.144Z,46.20
2018-12-26T21:19:52.503Z,49.07
2018-12-26T21:22:21.457Z,46.60
2018-12-26T21:24:50.391Z,45.03
2018-12-26T21:27:19.335Z,51.40
2018-12-26T21:29:48.776Z,49.17
2018-12-26T21:32:17.808Z,48.50
2018-12-26T21:34:46.726Z,52.20
2018-12-26T21:37:15.667Z,49.90
2018-12-26T21:39:44.878Z,51.40
2018-12-26T21:42:13.811Z,49.93
2018-12-26T21:44:42.743Z,50.13
2018-12-26T21:47:11.851Z,51.80
2018-12-26T21:49:40.791Z,52.60
2018-12-26T21:52:10.359Z,49.07
2018-12-26T21:54:39.403Z,56.23
2018-12-26T21:57:11.474Z,50.97
2018-12-26T21:59:40.400Z,52.13
2018-12-26T22:02:09.341Z,54.53
2018-12-26T22:04:38.600Z,52.00
2018-12-26T22:07:07.579Z,51.23
2018-12-26T22:09:36.758Z,55.43
2018-12-26T22:12:05.708Z,54.80
2018-12-26T22:14:34.961Z,58.33
2018-12-26T22:17:03.970Z,60.93
2018-12-26T22:19:32.899Z,56.60
2018-12-26T22:22:02.094Z,58.23
2018-12-26T22:24:31.607Z,59.67
2018-12-26T22:27:00.547Z,53.37
2018-12-26T22:29:29.759Z,58.77
2018-12-26T22:31:58.733Z,63.07
2018-12-26T22:34:27.591Z,60.17
2018-12-26T22:36:56.571Z,59.70
2018-12-26T22:39:25.774Z,59.00
2018-12-26T22:41:54.697Z,60.20
2018-12-26T22:44:27.695Z,58.43
2018-12-26T22:46:54.682Z,59.87
2018-12-26T22:49:23.654Z,57.07
2018-12-26T22:51:52.903Z,60.23
2018-12-26T22:54:22.209Z,64.30
2018-12-26T22:56:52.335Z,59.83
2018-12-26T22:59:21.277Z,59.93
2018-12-26T23:01:50.227Z,54.27
2018-12-26T23:04:19.161Z,60.83
2018-12-26T23:06:48.116Z,58.90
2018-12-26T23:09:17.179Z,59.07
2018-12-26T23:11:46.443Z,55.90
2018-12-26T23:14:15.377Z,64.50
2018-12-26T23:16:44.401Z,59.40
2018-12-26T23:19:13.404Z,53.57
2018-12-26T23:21:42.342Z,59.17
2018-12-26T23:24:11.346Z,57.37
2018-12-26T23:26:40.615Z,51.00
2018-12-26T23:29:09.863Z,60.87
2018-12-26T23:31:39.023Z,56.20
2018-12-26T23:34:07.957Z,49.67
2018-12-26T23:36:36.874Z,47.10
2018-12-26T23:39:07.395Z,48.40
2018-12-26T23:41:36.491Z,50.37
2018-12-26T23:44:07.882Z,49.80
2018-12-26T23:46:36.816Z,46.03
2018-12-26T23:49:05.755Z,50.43
2018-12-26T23:51:34.985Z,48.77
2018-12-26T23:54:04.809Z,48.77
2018-12-26T23:56:33.746Z,46.73
2018-12-26T23:59:02.675Z,47.80
